createdAt,value
2018-05-12T00:01:42.908Z,13.30
2018-05-12T00:04:53.245Z,13.30
2018-05-12T00:08:03.723Z,13.20
2018-05-12T00:11:14.365Z,13.30
2018-05-12T00:14:24.624Z,13.30
2018-05-12T00:17:34.771Z,13.40
2018-05-12T00:20:45.424Z,13.40
2018-05-12T00:23:55.254Z,13.30
2018-05-12T00:27:05.280Z,13.20
2018-05-12T00:30:15.917Z,13.20
2018-05-12T00:33:26.150Z,13.20
2018-05-12T00:36:36.157Z,13.30
2018-05-12T00:39:46.133Z,13.20
2018-05-12T00:42:55.934Z,13.20
2018-05-12T00:46:06.829Z,13.30
2018-05-12T00:49:16.841Z,13.30
2018-05-12T00:52:26.746Z,13.30
2018-05-12T00:55:36.609Z,13.30
2018-05-12T00:58:46.347Z,13.20
2018-05-12T01:01:57.335Z,13.30
2018-05-12T01:05:08.006Z,13.30
2018-05-12T01:08:18.208Z,13.30
2018-05-12T01:11:29.051Z,13.20
2018-05-12T01:14:39.242Z,13.20
2018-05-12T01:17:49.770Z,13.20
2018-05-12T01:21:00.289Z,13.20
2018-05-12T01:24:10.407Z,13.30
2018-05-12T01:27:20.633Z,13.30
2018-05-12T01:30:30.298Z,13.40
2018-05-12T01:33:40.192Z,13.40
2018-05-12T01:36:51.684Z,13.30
2018-05-12T01:40:01.985Z,13.30
2018-05-12T01:43:12.683Z,13.20
2018-05-12T01:46:22.562Z,13.10
2018-05-12T01:49:32.783Z,13.10
2018-05-12T01:52:43.447Z,13.10
2018-05-12T01:55:53.584Z,13.00
2018-05-12T01:59:04.195Z,13.00
2018-05-12T02:02:13.792Z,13.00
2018-05-12T02:05:25.861Z,12.90
2018-05-12T02:08:36.001Z,12.90
2018-05-12T02:11:46.382Z,12.90
2018-05-12T02:14:57.123Z,12.80
2018-05-12T02:18:08.014Z,12.60
2018-05-12T02:21:18.462Z,12.70
2018-05-12T02:24:29.312Z,12.70
2018-05-12T02:27:39.924Z,12.60
2018-05-12T02:30:50.513Z,12.40
2018-05-12T02:34:00.513Z,12.50
2018-05-12T02:37:12.813Z,12.50
2018-05-12T02:40:23.710Z,12.40
2018-05-12T02:43:33.668Z,12.40
2018-05-12T02:46:44.722Z,12.40
2018-05-12T02:49:55.414Z,12.30
2018-05-12T02:53:06.034Z,12.20
2018-05-12T02:56:17.000Z,12.10
2018-05-12T02:59:27.255Z,12.10
2018-05-12T03:02:37.308Z,12.00
2018-05-12T03:05:47.221Z,12.00
2018-05-12T03:09:00.969Z,12.10
2018-05-12T03:12:12.295Z,12.10
2018-05-12T03:15:23.897Z,12.20
2018-05-12T03:18:34.535Z,12.20
2018-05-12T03:21:46.498Z,12.20
2018-05-12T03:24:56.972Z,12.20
2018-05-12T03:28:08.996Z,12.20
2018-05-12T03:31:18.890Z,12.30
2018-05-12T03:34:31.015Z,12.20
2018-05-12T03:37:41.439Z,12.20
2018-05-12T03:40:53.703Z,12.20
2018-05-12T03:44:04.289Z,12.20
2018-05-12T03:47:14.267Z,12.30
2018-05-12T03:50:27.933Z,12.30
2018-05-12T03:53:39.221Z,12.40
2018-05-12T03:56:48.764Z,12.30
2018-05-12T04:00:01.082Z,12.40
2018-05-12T04:03:11.762Z,12.40
2018-05-12T04:06:33.627Z,12.40
2018-05-12T04:09:59.169Z,12.40
2018-05-12T04:13:10.820Z,12.40
2018-05-12T04:16:21.113Z,12.40
2018-05-12T04:19:33.017Z,12.40
2018-05-12T04:22:43.163Z,12.40
2018-05-12T04:25:53.389Z,12.30
2018-05-12T04:29:03.154Z,12.30
2018-05-12T04:32:15.447Z,12.40
2018-05-12T04:35:27.006Z,12.40
2018-05-12T04:38:37.433Z,12.40
2018-05-12T04:41:49.838Z,12.50
2018-05-12T04:45:02.504Z,12.60
2018-05-12T04:48:12.835Z,12.70
2018-05-12T04:51:23.832Z,12.80
2018-05-12T04:54:36.164Z,12.80
2018-05-12T04:57:46.764Z,13.00
2018-05-12T05:00:58.749Z,13.00
2018-05-12T05:04:09.537Z,13.10
2018-05-12T05:07:22.231Z,13.10
2018-05-12T05:10:34.437Z,13.20
2018-05-12T05:13:45.229Z,13.30
2018-05-12T05:16:55.618Z,13.30
2018-05-12T05:20:05.812Z,13.40
2018-05-12T05:23:17.813Z,13.40
2018-05-12T05:26:28.149Z,13.50
2018-05-12T05:29:38.126Z,13.60
2018-05-12T05:32:49.855Z,13.70
2018-05-12T05:35:59.865Z,13.90
2018-05-12T05:39:10.292Z,14.00
2018-05-12T05:42:21.254Z,14.10
2018-05-12T05:45:37.059Z,14.10
2018-05-12T05:48:49.853Z,14.30
2018-05-12T05:51:59.971Z,14.40
2018-05-12T05:55:10.241Z,14.60
2018-05-12T05:58:20.949Z,14.70
2018-05-12T06:01:33.743Z,14.80
2018-05-12T06:04:44.153Z,14.90
2018-05-12T06:07:54.047Z,15.10
2018-05-12T06:11:04.130Z,15.10
2018-05-12T06:14:14.024Z,15.20
2018-05-12T06:17:26.273Z,15.30
2018-05-12T06:20:37.920Z,15.50
2018-05-12T06:23:52.915Z,15.50
2018-05-12T06:27:04.701Z,15.50
2018-05-12T06:30:14.920Z,15.60
2018-05-12T06:33:24.874Z,15.70
2018-05-12T06:36:35.172Z,15.80
2018-05-12T06:39:47.017Z,15.80
2018-05-12T06:42:58.269Z,15.90
2018-05-12T06:46:08.479Z,16.00
2018-05-12T06:49:19.536Z,16.20
2018-05-12T06:52:32.213Z,16.20
2018-05-12T06:55:42.411Z,16.30
2018-05-12T06:58:54.491Z,16.40
2018-05-12T07:02:05.146Z,16.40
2018-05-12T07:05:15.110Z,16.50
2018-05-12T07:08:25.442Z,16.60
2018-05-12T07:11:36.802Z,16.60
2018-05-12T07:14:47.617Z,16.70
2018-05-12T07:17:59.942Z,16.80
2018-05-12T07:21:10.992Z,16.90
2018-05-12T07:24:21.677Z,17.00
2018-05-12T07:27:32.597Z,17.20
2018-05-12T07:30:43.626Z,17.30
2018-05-12T07:33:53.772Z,17.20
2018-05-12T07:37:05.115Z,17.40
2018-05-12T07:40:15.416Z,17.40
2018-05-12T07:43:25.590Z,17.50
2018-05-12T07:46:36.899Z,17.70
2018-05-12T07:49:46.865Z,17.70
2018-05-12T07:52:57.088Z,17.80
2018-05-12T07:56:07.756Z,17.80
2018-05-12T07:59:17.639Z,17.80
2018-05-12T08:02:27.436Z,17.80
2018-05-12T08:05:37.226Z,18.00
2018-05-12T08:08:47.750Z,18.20
2018-05-12T08:11:58.003Z,18.20
2018-05-12T08:15:07.841Z,18.40
2018-05-12T08:18:17.699Z,18.50
2018-05-12T08:21:29.505Z,18.80
2018-05-12T08:24:39.358Z,18.80
2018-05-12T08:27:50.874Z,19.20
2018-05-12T08:31:00.899Z,19.20
2018-05-12T08:34:10.714Z,19.30
2018-05-12T08:37:20.428Z,19.30
2018-05-12T08:40:30.858Z,19.40
2018-05-12T08:43:41.085Z,19.40
2018-05-12T08:46:51.761Z,19.60
2018-05-12T08:50:01.887Z,19.80
2018-05-12T08:53:14.139Z,19.80
2018-05-12T08:56:24.299Z,19.90
2018-05-12T08:59:34.348Z,20.20
2018-05-12T09:02:44.307Z,20.30
2018-05-12T09:05:55.437Z,20.40
2018-05-12T09:09:05.273Z,20.60
2018-05-12T09:12:15.839Z,20.70
2018-05-12T09:15:25.721Z,20.70
2018-05-12T09:18:35.587Z,20.70
2018-05-12T09:21:45.962Z,20.90
2018-05-12T09:24:55.802Z,20.90
2018-05-12T09:28:05.293Z,21.10
2018-05-12T09:31:15.347Z,21.10
2018-05-12T09:34:26.642Z,21.20
2018-05-12T09:37:37.373Z,21.30
2018-05-12T09:40:47.335Z,21.30
2018-05-12T09:43:57.766Z,21.50
2018-05-12T09:47:07.497Z,21.50
2018-05-12T09:50:17.418Z,21.50
2018-05-12T09:53:28.365Z,21.50
2018-05-12T09:56:38.190Z,21.70
2018-05-12T09:59:48.269Z,22.00
2018-05-12T10:02:59.534Z,22.00
2018-05-12T10:06:09.827Z,22.10
2018-05-12T10:09:20.135Z,22.10
2018-05-12T10:12:30.298Z,22.30
2018-05-12T10:15:40.674Z,22.40
2018-05-12T10:18:51.936Z,22.70
2018-05-12T10:22:02.641Z,22.70
2018-05-12T10:25:12.704Z,22.80
2018-05-12T10:28:23.875Z,22.80
2018-05-12T10:31:33.735Z,23.00
2018-05-12T10:34:43.931Z,23.00
2018-05-12T10:37:53.743Z,23.10
2018-05-12T10:41:03.733Z,23.00
2018-05-12T10:44:13.590Z,22.50
2018-05-12T10:47:23.649Z,22.50
2018-05-12T10:50:33.660Z,22.60
2018-05-12T10:53:43.469Z,22.70
2018-05-12T10:56:53.239Z,22.90
2018-05-12T11:00:03.214Z,23.10
2018-05-12T11:03:12.972Z,22.70
2018-05-12T11:06:22.759Z,22.90
2018-05-12T11:09:32.593Z,23.20
2018-05-12T11:12:42.631Z,23.10
2018-05-12T11:15:52.438Z,22.80
2018-05-12T11:19:02.319Z,22.90
2018-05-12T11:22:13.780Z,22.90
2018-05-12T11:25:24.231Z,22.90
2018-05-12T11:28:34.563Z,22.80
2018-05-12T11:31:45.470Z,22.50
2018-05-12T11:34:55.370Z,22.50
2018-05-12T11:38:06.038Z,22.30
2018-05-12T11:41:18.881Z,22.30
2018-05-12T11:44:29.286Z,22.20
2018-05-12T11:47:40.037Z,22.00
2018-05-12T11:50:49.984Z,21.50
2018-05-12T11:53:59.953Z,20.20
2018-05-12T11:57:10.761Z,20.00
2018-05-12T12:00:21.441Z,19.80
2018-05-12T12:03:31.216Z,19.40
2018-05-12T12:06:41.833Z,19.40
2018-05-12T12:09:52.882Z,19.30
2018-05-12T12:13:05.655Z,19.30
2018-05-12T12:16:15.690Z,19.20
2018-05-12T12:19:25.621Z,19.20
2018-05-12T12:22:36.363Z,19.20
2018-05-12T12:25:46.747Z,19.30
2018-05-12T12:28:56.616Z,19.30
2018-05-12T12:32:06.932Z,19.20
2018-05-12T12:35:17.360Z,19.30
2018-05-12T12:38:27.586Z,19.30
2018-05-12T12:41:37.746Z,19.30
2018-05-12T12:44:48.772Z,19.50
2018-05-12T12:47:59.041Z,19.40
2018-05-12T12:51:08.981Z,19.40
2018-05-12T12:54:18.792Z,19.40
2018-05-12T12:57:29.024Z,19.40
2018-05-12T13:00:39.494Z,19.50
2018-05-12T13:03:50.170Z,19.40
2018-05-12T13:07:00.329Z,19.40
2018-05-12T13:10:11.031Z,19.50
2018-05-12T13:13:20.857Z,19.60
2018-05-12T13:16:30.845Z,19.70
2018-05-12T13:19:40.847Z,19.80
2018-05-12T13:22:50.998Z,20.00
2018-05-12T13:26:01.652Z,20.30
2018-05-12T13:29:12.397Z,20.40
2018-05-12T13:32:22.676Z,20.40
2018-05-12T13:35:32.700Z,20.60
2018-05-12T13:38:42.815Z,20.60
2018-05-12T13:41:52.533Z,21.10
2018-05-12T13:45:02.536Z,21.40
2018-05-12T13:48:12.569Z,21.60
2018-05-12T13:51:23.741Z,22.00
2018-05-12T13:54:33.525Z,22.00
2018-05-12T13:57:44.129Z,22.40
2018-05-12T14:00:53.729Z,22.40
2018-05-12T14:04:03.568Z,22.50
2018-05-12T14:07:13.924Z,22.50
2018-05-12T14:10:24.302Z,22.50
2018-05-12T14:13:34.119Z,22.50
2018-05-12T14:16:44.801Z,22.70
2018-05-12T14:19:55.850Z,22.80
2018-05-12T14:23:06.401Z,22.70
2018-05-12T14:26:16.848Z,23.00
2018-05-12T14:29:27.070Z,23.00
2018-05-12T14:32:36.826Z,22.90
2018-05-12T14:35:46.813Z,23.10
2018-05-12T14:38:56.881Z,23.00
2018-05-12T14:42:06.885Z,22.90
2018-05-12T14:45:16.899Z,23.00
2018-05-12T14:48:27.272Z,22.90
2018-05-12T14:51:37.311Z,22.80
2018-05-12T14:54:48.088Z,22.80
2018-05-12T14:57:58.265Z,22.80
2018-05-12T15:01:08.137Z,22.80
2018-05-12T15:04:18.042Z,22.90
2018-05-12T15:07:27.734Z,22.80
2018-05-12T15:10:37.397Z,22.80
2018-05-12T15:13:47.277Z,22.90
2018-05-12T15:16:57.490Z,22.70
2018-05-12T15:20:08.193Z,22.80
2018-05-12T15:23:19.780Z,22.80
2018-05-12T15:26:30.005Z,22.80
2018-05-12T15:29:39.908Z,22.80
2018-05-12T15:32:49.689Z,22.80
2018-05-12T15:35:59.516Z,22.80
2018-05-12T15:39:09.205Z,22.80
2018-05-12T15:42:18.949Z,22.80
2018-05-12T15:45:28.902Z,22.80
2018-05-12T15:48:38.749Z,22.90
2018-05-12T15:51:48.557Z,22.70
2018-05-12T15:54:58.581Z,22.60
2018-05-12T15:58:09.264Z,22.60
2018-05-12T16:01:20.040Z,22.70
2018-05-12T16:04:30.153Z,22.70
2018-05-12T16:07:40.182Z,22.80
2018-05-12T16:10:51.160Z,22.90
2018-05-12T16:14:00.873Z,22.80
2018-05-12T16:17:11.284Z,22.80
2018-05-12T16:20:21.667Z,22.90
2018-05-12T16:23:31.790Z,22.80
2018-05-12T16:26:42.769Z,22.90
2018-05-12T16:29:53.011Z,22.90
2018-05-12T16:33:03.347Z,22.80
2018-05-12T16:36:13.483Z,22.80
2018-05-12T16:39:23.343Z,22.80
2018-05-12T16:42:33.242Z,22.70
2018-05-12T16:45:43.178Z,22.70
2018-05-12T16:48:53.213Z,22.70
2018-05-12T16:52:02.779Z,22.70
2018-05-12T16:55:12.798Z,22.70
2018-05-12T16:58:22.496Z,22.60
2018-05-12T17:01:32.483Z,22.60
2018-05-12T17:04:42.393Z,22.60
2018-05-12T17:07:52.301Z,22.50
2018-05-12T17:11:02.567Z,22.40
2018-05-12T17:14:13.156Z,22.30
2018-05-12T17:17:23.280Z,22.30
2018-05-12T17:20:33.174Z,22.20
2018-05-12T17:23:44.540Z,22.10
2018-05-12T17:26:54.426Z,22.10
2018-05-12T17:30:04.060Z,22.00
2018-05-12T17:33:15.008Z,21.80
2018-05-12T17:36:24.821Z,21.80
2018-05-12T17:39:35.358Z,21.70
2018-05-12T17:42:46.292Z,21.60
2018-05-12T17:45:56.692Z,21.60
2018-05-12T17:49:06.812Z,21.50
2018-05-12T17:52:16.626Z,21.40
2018-05-12T17:55:27.686Z,21.20
2018-05-12T17:58:37.968Z,21.20
2018-05-12T18:01:47.963Z,21.10
2018-05-12T18:04:58.824Z,21.00
2018-05-12T18:08:09.865Z,20.90
2018-05-12T18:11:19.985Z,20.90
2018-05-12T18:14:29.880Z,20.90
2018-05-12T18:17:40.680Z,20.80
2018-05-12T18:20:51.254Z,20.80
2018-05-12T18:24:01.829Z,20.70
2018-05-12T18:27:12.508Z,20.60
2018-05-12T18:30:22.333Z,20.60
2018-05-12T18:33:32.366Z,20.50
2018-05-12T18:36:42.286Z,20.50
2018-05-12T18:39:52.318Z,20.40
2018-05-12T18:43:02.590Z,20.30
2018-05-12T18:46:12.867Z,20.30
2018-05-12T18:49:22.885Z,20.20
2018-05-12T18:52:33.507Z,20.00
2018-05-12T18:55:43.978Z,20.00
2018-05-12T18:58:53.742Z,20.00
2018-05-12T19:02:04.518Z,19.80
2018-05-12T19:05:15.197Z,19.70
2018-05-12T19:08:25.110Z,19.60
2018-05-12T19:11:34.961Z,19.50
2018-05-12T19:14:45.062Z,19.30
2018-05-12T19:17:55.028Z,19.00
2018-05-12T19:21:04.797Z,19.00
2018-05-12T19:24:15.195Z,18.90
2018-05-12T19:27:25.629Z,19.00
2018-05-12T19:30:35.690Z,19.00
2018-05-12T19:33:45.700Z,19.00
2018-05-12T19:36:55.880Z,18.90
2018-05-12T19:40:05.882Z,18.90
2018-05-12T19:43:15.808Z,18.80
2018-05-12T19:46:26.609Z,18.70
2018-05-12T19:49:36.356Z,18.50
2018-05-12T19:52:47.338Z,18.20
2018-05-12T19:55:57.178Z,18.10
2018-05-12T19:59:07.857Z,17.90
2018-05-12T20:02:17.731Z,17.90
2018-05-12T20:05:27.596Z,18.00
2018-05-12T20:08:37.567Z,18.20
2018-05-12T20:11:47.818Z,18.30
2018-05-12T20:14:57.584Z,18.30
2018-05-12T20:18:07.379Z,18.10
2018-05-12T20:21:17.263Z,18.00
2018-05-12T20:24:27.345Z,18.00
2018-05-12T20:27:37.886Z,17.90
2018-05-12T20:30:47.885Z,18.00
2018-05-12T20:33:59.264Z,18.00
2018-05-12T20:37:09.280Z,18.00
2018-05-12T20:40:19.976Z,18.00
2018-05-12T20:43:29.576Z,18.00
2018-05-12T20:46:39.634Z,17.80
2018-05-12T20:49:49.589Z,17.80
2018-05-12T20:53:00.253Z,17.80
2018-05-12T20:56:10.969Z,17.70
2018-05-12T20:59:20.766Z,17.70
2018-05-12T21:02:31.595Z,17.60
2018-05-12T21:05:42.017Z,17.60
2018-05-12T21:08:51.804Z,17.60
2018-05-12T21:12:01.735Z,17.60
2018-05-12T21:15:12.018Z,17.70
2018-05-12T21:18:21.954Z,17.70
2018-05-12T21:21:31.855Z,17.70
2018-05-12T21:24:42.154Z,17.60
2018-05-12T21:27:53.424Z,17.20
2018-05-12T21:31:03.745Z,17.10
2018-05-12T21:34:13.648Z,17.30
2018-05-12T21:37:24.276Z,17.30
2018-05-12T21:40:34.499Z,17.20
2018-05-12T21:43:45.246Z,17.00
2018-05-12T21:46:56.311Z,17.00
2018-05-12T21:50:06.584Z,17.00
2018-05-12T21:53:16.782Z,16.90
2018-05-12T21:56:26.519Z,16.80
2018-05-12T21:59:36.457Z,16.90
2018-05-12T22:02:46.832Z,16.90
2018-05-12T22:05:57.628Z,16.80
2018-05-12T22:09:08.201Z,16.80
2018-05-12T22:12:19.374Z,16.80
2018-05-12T22:15:29.620Z,16.80
2018-05-12T22:18:39.660Z,16.90
2018-05-12T22:21:50.055Z,16.90
2018-05-12T22:25:00.241Z,17.00
2018-05-12T22:28:10.173Z,17.00
2018-05-12T22:31:20.818Z,16.80
2018-05-12T22:34:30.934Z,16.80
2018-05-12T22:37:41.648Z,16.70
2018-05-12T22:40:51.779Z,16.70
2018-05-12T22:44:01.719Z,16.50
2018-05-12T22:47:11.622Z,16.40
2018-05-12T22:50:21.279Z,16.30
2018-05-12T22:53:32.230Z,16.00
2018-05-12T22:56:42.549Z,16.00
2018-05-12T22:59:52.461Z,16.00
2018-05-12T23:03:02.521Z,16.00
2018-05-12T23:06:12.386Z,15.90
2018-05-12T23:09:22.472Z,15.80
2018-05-12T23:12:32.578Z,15.70
2018-05-12T23:15:42.670Z,15.90
2018-05-12T23:18:52.843Z,15.70
2018-05-12T23:22:02.684Z,15.90
2018-05-12T23:25:12.977Z,15.90
2018-05-12T23:28:23.640Z,15.90
2018-05-12T23:31:33.471Z,16.00
2018-05-12T23:34:43.564Z,16.00
2018-05-12T23:37:53.896Z,15.80
2018-05-12T23:41:03.801Z,15.60
2018-05-12T23:44:13.845Z,15.50
2018-05-12T23:47:23.460Z,15.40
2018-05-12T23:50:34.367Z,15.30
2018-05-12T23:53:45.792Z,15.20
2018-05-12T23:56:56.229Z,15.20
